sensor_id;sensor_type;location;lat;lon;timestamp;P1;durP1;ratioP1;P2;durP2;ratioP2
19329;SDS011;9799;48.214;16.388;2023-03-01T00:00:27;28.60;;;19.80;;
19329;SDS011;9799;48.214;16.388;2023-03-01T00:03:48;36.13;;;21.83;;
19329;SDS011;9799;48.214;16.388;2023-03-01T00:07:10;37.90;;;21.73;;
19329;SDS011;9799;48.214;16.388;2023-03-01T00:10:32;37.17;;;21.20;;
19329;SDS011;9799;48.214;16.388;2023-03-01T00:13:54;32.33;;;21.73;;
19329;SDS011;9799;48.214;16.388;2023-03-01T00:17:18;38.43;;;23.43;;
19329;SDS011;9799;48.214;16.388;2023-03-01T00:20:39;33.30;;;21.90;;
19329;SDS011;9799;48.214;16.388;2023-03-01T00:24:00;38.93;;;23.30;;
19329;SDS011;9799;48.214;16.388;2023-03-01T00:27:22;41.07;;;23.93;;
19329;SDS011;9799;48.214;16.388;2023-03-01T00:30:43;38.43;;;24.40;;
19329;SDS011;9799;48.214;16.388;2023-03-01T00:34:06;33.30;;;23.80;;
19329;SDS011;9799;48.214;16.388;2023-03-01T00:37:27;35.17;;;21.97;;
19329;SDS011;9799;48.214;16.388;2023-03-01T00:40:48;37.90;;;23.17;;
19329;SDS011;9799;48.214;16.388;2023-03-01T00:44:10;37.93;;;22.83;;
19329;SDS011;9799;48.214;16.388;2023-03-01T00:47:31;37.53;;;24.30;;
19329;SDS011;9799;48.214;16.388;2023-03-01T00:50:54;36.97;;;24.20;;
19329;SDS011;9799;48.214;16.388;2023-03-01T00:54:15;39.30;;;23.90;;
19329;SDS011;9799;48.214;16.388;2023-03-01T00:57:37;37.80;;;24.43;;
19329;SDS011;9799;48.214;16.388;2023-03-01T01:00:58;36.83;;;23.57;;
19329;SDS011;9799;48.214;16.388;2023-03-01T01:04:19;43.97;;;25.27;;
19329;SDS011;9799;48.214;16.388;2023-03-01T01:07:43;34.60;;;23.03;;
19329;SDS011;9799;48.214;16.388;2023-03-01T01:11:04;37.17;;;22.80;;
19329;SDS011;9799;48.214;16.388;2023-03-01T01:14:25;35.43;;;23.43;;
19329;SDS011;9799;48.214;16.388;2023-03-01T01:17:49;39.30;;;24.10;;
19329;SDS011;9799;48.214;16.388;2023-03-01T01:21:11;38.80;;;24.50;;
19329;SDS011;9799;48.214;16.388;2023-03-01T01:24:35;35.87;;;23.13;;
19329;SDS011;9799;48.214;16.388;2023-03-01T01:27:56;39.10;;;23.77;;
19329;SDS011;9799;48.214;16.388;2023-03-01T01:31:17;36.67;;;22.87;;
19329;SDS011;9799;48.214;16.388;2023-03-01T01:34:39;36.67;;;22.57;;
19329;SDS011;9799;48.214;16.388;2023-03-01T01:38:00;39.80;;;23.30;;
19329;SDS011;9799;48.214;16.388;2023-03-01T01:41:23;37.17;;;23.27;;
19329;SDS011;9799;48.214;16.388;2023-03-01T01:44:45;38.17;;;22.93;;
19329;SDS011;9799;48.214;16.388;2023-03-01T01:48:10;38.57;;;23.33;;
19329;SDS011;9799;48.214;16.388;2023-03-01T01:51:35;36.87;;;24.00;;
19329;SDS011;9799;48.214;16.388;2023-03-01T01:55:04;35.40;;;23.40;;
19329;SDS011;9799;48.214;16.388;2023-03-01T01:58:30;38.60;;;23.57;;
19329;SDS011;9799;48.214;16.388;2023-03-01T02:01:51;40.80;;;25.07;;
19329;SDS011;9799;48.214;16.388;2023-03-01T02:05:14;36.63;;;24.10;;
19329;SDS011;9799;48.214;16.388;2023-03-01T02:08:41;36.50;;;22.67;;
19329;SDS011;9799;48.214;16.388;2023-03-01T02:12:03;39.03;;;24.87;;
19329;SDS011;9799;48.214;16.388;2023-03-01T02:15:27;41.87;;;24.30;;
19329;SDS011;9799;48.214;16.388;2023-03-01T02:18:53;34.77;;;23.77;;
19329;SDS011;9799;48.214;16.388;2023-03-01T02:22:17;38.20;;;25.10;;
19329;SDS011;9799;48.214;16.388;2023-03-01T02:25:46;34.50;;;23.27;;
19329;SDS011;9799;48.214;16.388;2023-03-01T02:29:12;39.13;;;24.97;;
19329;SDS011;9799;48.214;16.388;2023-03-01T02:32:33;39.80;;;25.97;;
19329;SDS011;9799;48.214;16.388;2023-03-01T02:35:55;40.67;;;25.57;;
19329;SDS011;9799;48.214;16.388;2023-03-01T02:39:17;41.00;;;25.20;;
19329;SDS011;9799;48.214;16.388;2023-03-01T02:42:43;47.47;;;25.90;;
19329;SDS011;9799;48.214;16.388;2023-03-01T02:46:14;42.70;;;24.30;;
19329;SDS011;9799;48.214;16.388;2023-03-01T02:49:37;43.97;;;25.50;;
19329;SDS011;9799;48.214;16.388;2023-03-01T02:53:00;36.53;;;25.07;;
19329;SDS011;9799;48.214;16.388;2023-03-01T02:56:24;42.13;;;25.20;;
19329;SDS011;9799;48.214;16.388;2023-03-01T02:59:46;40.07;;;24.77;;
19329;SDS011;9799;48.214;16.388;2023-03-01T03:03:09;40.87;;;25.97;;
19329;SDS011;9799;48.214;16.388;2023-03-01T03:06:34;41.43;;;25.10;;
19329;SDS011;9799;48.214;16.388;2023-03-01T03:09:55;38.47;;;25.77;;
19329;SDS011;9799;48.214;16.388;2023-03-01T03:13:16;40.87;;;26.73;;
19329;SDS011;9799;48.214;16.388;2023-03-01T03:16:39;40.73;;;25.40;;
19329;SDS011;9799;48.214;16.388;2023-03-01T03:20:03;42.77;;;26.53;;
19329;SDS011;9799;48.214;16.388;2023-03-01T03:23:25;42.53;;;24.93;;
19329;SDS011;9799;48.214;16.388;2023-03-01T03:26:46;42.60;;;25.70;;
19329;SDS011;9799;48.214;16.388;2023-03-01T03:30:08;41.80;;;26.13;;
19329;SDS011;9799;48.214;16.388;2023-03-01T03:33:32;41.47;;;26.07;;
19329;SDS011;9799;48.214;16.388;2023-03-01T03:36:55;39.63;;;26.27;;
19329;SDS011;9799;48.214;16.388;2023-03-01T03:40:18;45.40;;;26.37;;
19329;SDS011;9799;48.214;16.388;2023-03-01T03:43:40;41.73;;;25.87;;
19329;SDS011;9799;48.214;16.388;2023-03-01T03:47:02;43.63;;;25.53;;
19329;SDS011;9799;48.214;16.388;2023-03-01T03:50:23;41.47;;;26.37;;
19329;SDS011;9799;48.214;16.388;2023-03-01T03:53:45;41.10;;;26.77;;
19329;SDS011;9799;48.214;16.388;2023-03-01T03:57:07;40.97;;;25.53;;
19329;SDS011;9799;48.214;16.388;2023-03-01T04:00:28;41.17;;;26.17;;
19329;SDS011;9799;48.214;16.388;2023-03-01T04:03:49;40.03;;;26.47;;
19329;SDS011;9799;48.214;16.388;2023-03-01T04:07:13;41.30;;;25.93;;
19329;SDS011;9799;48.214;16.388;2023-03-01T04:10:37;43.67;;;26.03;;
19329;SDS011;9799;48.214;16.388;2023-03-01T04:13:59;41.93;;;26.50;;
19329;SDS011;9799;48.214;16.388;2023-03-01T04:17:20;40.80;;;26.97;;
19329;SDS011;9799;48.214;16.388;2023-03-01T04:20:42;39.40;;;24.97;;
19329;SDS011;9799;48.214;16.388;2023-03-01T04:24:04;41.33;;;26.50;;
19329;SDS011;9799;48.214;16.388;2023-03-01T04:27:27;40.50;;;25.27;;
19329;SDS011;9799;48.214;16.388;2023-03-01T04:30:48;37.33;;;24.83;;
19329;SDS011;9799;48.214;16.388;2023-03-01T04:34:10;41.00;;;26.97;;
19329;SDS011;9799;48.214;16.388;2023-03-01T04:37:32;46.40;;;27.13;;
19329;SDS011;9799;48.214;16.388;2023-03-01T04:40:54;42.13;;;26.30;;
19329;SDS011;9799;48.214;16.388;2023-03-01T04:44:17;46.53;;;28.13;;
19329;SDS011;9799;48.214;16.388;2023-03-01T04:47:39;40.07;;;26.17;;
19329;SDS011;9799;48.214;16.388;2023-03-01T04:51:02;40.43;;;26.07;;
19329;SDS011;9799;48.214;16.388;2023-03-01T04:54:23;40.37;;;27.10;;
19329;SDS011;9799;48.214;16.388;2023-03-01T04:57:45;41.07;;;26.43;;
19329;SDS011;9799;48.214;16.388;2023-03-01T05:01:09;44.27;;;26.73;;
19329;SDS011;9799;48.214;16.388;2023-03-01T05:04:34;43.43;;;26.50;;
19329;SDS011;9799;48.214;16.388;2023-03-01T05:07:56;32.77;;;22.90;;
19329;SDS011;9799;48.214;16.388;2023-03-01T05:11:19;38.03;;;25.07;;
19329;SDS011;9799;48.214;16.388;2023-03-01T05:14:40;38.83;;;25.30;;
19329;SDS011;9799;48.214;16.388;2023-03-01T05:18:03;46.37;;;25.10;;
19329;SDS011;9799;48.214;16.388;2023-03-01T05:21:30;43.17;;;25.53;;
19329;SDS011;9799;48.214;16.388;2023-03-01T05:24:53;40.10;;;24.07;;
19329;SDS011;9799;48.214;16.388;2023-03-01T05:28:14;38.20;;;25.33;;
19329;SDS011;9799;48.214;16.388;2023-03-01T05:31:35;42.43;;;26.37;;
19329;SDS011;9799;48.214;16.388;2023-03-01T05:34:58;41.40;;;26.97;;
19329;SDS011;9799;48.214;16.388;2023-03-01T05:38:20;38.80;;;25.30;;
19329;SDS011;9799;48.214;16.388;2023-03-01T05:41:41;46.07;;;26.03;;
19329;SDS011;9799;48.214;16.388;2023-03-01T05:45:03;38.63;;;25.40;;
19329;SDS011;9799;48.214;16.388;2023-03-01T05:48:28;36.93;;;24.97;;
19329;SDS011;9799;48.214;16.388;2023-03-01T05:51:51;45.53;;;26.70;;
19329;SDS011;9799;48.214;16.388;2023-03-01T05:55:13;35.90;;;23.83;;
19329;SDS011;9799;48.214;16.388;2023-03-01T05:58:36;40.53;;;24.60;;
19329;SDS011;9799;48.214;16.388;2023-03-01T06:01:57;42.53;;;25.40;;
19329;SDS011;9799;48.214;16.388;2023-03-01T06:05:19;42.20;;;26.93;;
19329;SDS011;9799;48.214;16.388;2023-03-01T06:08:41;43.03;;;26.93;;
19329;SDS011;9799;48.214;16.388;2023-03-01T06:12:03;41.70;;;26.17;;
19329;SDS011;9799;48.214;16.388;2023-03-01T06:15:24;47.57;;;27.07;;
19329;SDS011;9799;48.214;16.388;2023-03-01T06:18:46;37.37;;;25.63;;
19329;SDS011;9799;48.214;16.388;2023-03-01T06:22:07;40.83;;;26.43;;
19329;SDS011;9799;48.214;16.388;2023-03-01T06:25:30;40.77;;;25.37;;
19329;SDS011;9799;48.214;16.388;2023-03-01T06:28:51;41.67;;;26.13;;
19329;SDS011;9799;48.214;16.388;2023-03-01T06:32:12;43.77;;;27.43;;
19329;SDS011;9799;48.214;16.388;2023-03-01T06:35:33;42.00;;;25.10;;
19329;SDS011;9799;48.214;16.388;2023-03-01T06:38:55;42.00;;;26.40;;
19329;SDS011;9799;48.214;16.388;2023-03-01T06:42:17;42.20;;;25.40;;
19329;SDS011;9799;48.214;16.388;2023-03-01T06:45:39;42.00;;;25.53;;
19329;SDS011;9799;48.214;16.388;2023-03-01T06:49:00;45.70;;;25.60;;
19329;SDS011;9799;48.214;16.388;2023-03-01T06:52:23;39.77;;;25.20;;
19329;SDS011;9799;48.214;16.388;2023-03-01T06:55:45;40.53;;;26.67;;
19329;SDS011;9799;48.214;16.388;2023-03-01T06:59:07;50.17;;;30.07;;
19329;SDS011;9799;48.214;16.388;2023-03-01T07:02:29;46.03;;;26.90;;
19329;SDS011;9799;48.214;16.388;2023-03-01T07:05:50;41.60;;;24.57;;
19329;SDS011;9799;48.214;16.388;2023-03-01T07:09:12;39.90;;;26.20;;
19329;SDS011;9799;48.214;16.388;2023-03-01T07:12:33;42.03;;;25.67;;
19329;SDS011;9799;48.214;16.388;2023-03-01T07:15:55;38.73;;;25.97;;
19329;SDS011;9799;48.214;16.388;2023-03-01T07:19:16;41.00;;;25.53;;
19329;SDS011;9799;48.214;16.388;2023-03-01T07:22:39;36.73;;;23.97;;
19329;SDS011;9799;48.214;16.388;2023-03-01T07:26:01;45.03;;;26.23;;
19329;SDS011;9799;48.214;16.388;2023-03-01T07:29:23;42.80;;;25.23;;
19329;SDS011;9799;48.214;16.388;2023-03-01T07:32:45;39.93;;;24.23;;
19329;SDS011;9799;48.214;16.388;2023-03-01T07:36:07;45.70;;;24.80;;
19329;SDS011;9799;48.214;16.388;2023-03-01T07:39:29;41.07;;;25.40;;
19329;SDS011;9799;48.214;16.388;2023-03-01T07:42:54;38.23;;;25.57;;
19329;SDS011;9799;48.214;16.388;2023-03-01T07:46:16;39.97;;;24.90;;
19329;SDS011;9799;48.214;16.388;2023-03-01T07:49:39;40.50;;;24.63;;
19329;SDS011;9799;48.214;16.388;2023-03-01T07:53:01;41.77;;;26.43;;
19329;SDS011;9799;48.214;16.388;2023-03-01T07:56:22;48.27;;;27.23;;
19329;SDS011;9799;48.214;16.388;2023-03-01T07:59:43;49.17;;;26.17;;
19329;SDS011;9799;48.214;16.388;2023-03-01T08:03:05;42.67;;;24.93;;
19329;SDS011;9799;48.214;16.388;2023-03-01T08:06:27;41.63;;;25.67;;
19329;SDS011;9799;48.214;16.388;2023-03-01T08:09:49;38.90;;;26.73;;
19329;SDS011;9799;48.214;16.388;2023-03-01T08:13:10;41.17;;;26.03;;
19329;SDS011;9799;48.214;16.388;2023-03-01T08:16:31;43.90;;;25.87;;
19329;SDS011;9799;48.214;16.388;2023-03-01T08:19:54;38.43;;;24.87;;
19329;SDS011;9799;48.214;16.388;2023-03-01T08:23:17;41.37;;;24.87;;
19329;SDS011;9799;48.214;16.388;2023-03-01T08:26:38;40.40;;;26.07;;
19329;SDS011;9799;48.214;16.388;2023-03-01T08:29:59;43.40;;;27.33;;
19329;SDS011;9799;48.214;16.388;2023-03-01T08:33:20;40.60;;;26.23;;
19329;SDS011;9799;48.214;16.388;2023-03-01T08:36:42;44.43;;;26.57;;
19329;SDS011;9799;48.214;16.388;2023-03-01T08:40:07;44.70;;;26.70;;
19329;SDS011;9799;48.214;16.388;2023-03-01T08:43:29;38.27;;;27.30;;
19329;SDS011;9799;48.214;16.388;2023-03-01T08:46:51;51.97;;;27.23;;
19329;SDS011;9799;48.214;16.388;2023-03-01T08:50:13;41.57;;;26.30;;
19329;SDS011;9799;48.214;16.388;2023-03-01T08:53:35;40.37;;;27.13;;
19329;SDS011;9799;48.214;16.388;2023-03-01T08:56:58;51.67;;;28.73;;
19329;SDS011;9799;48.214;16.388;2023-03-01T09:00:21;39.67;;;27.03;;
19329;SDS011;9799;48.214;16.388;2023-03-01T09:03:43;40.47;;;26.37;;
19329;SDS011;9799;48.214;16.388;2023-03-01T09:07:05;46.50;;;27.37;;
19329;SDS011;9799;48.214;16.388;2023-03-01T09:10:27;47.93;;;28.07;;
19329;SDS011;9799;48.214;16.388;2023-03-01T09:13:50;41.87;;;27.07;;
19329;SDS011;9799;48.214;16.388;2023-03-01T09:17:11;44.60;;;27.80;;
19329;SDS011;9799;48.214;16.388;2023-03-01T09:20:32;45.10;;;28.07;;
19329;SDS011;9799;48.214;16.388;2023-03-01T09:23:55;41.27;;;27.73;;
19329;SDS011;9799;48.214;16.388;2023-03-01T09:27:17;48.83;;;26.73;;
19329;SDS011;9799;48.214;16.388;2023-03-01T09:30:41;45.20;;;28.87;;
19329;SDS011;9799;48.214;16.388;2023-03-01T09:34:02;40.43;;;27.17;;
19329;SDS011;9799;48.214;16.388;2023-03-01T09:37:24;35.47;;;25.23;;
19329;SDS011;9799;48.214;16.388;2023-03-01T09:40:45;38.00;;;26.00;;
19329;SDS011;9799;48.214;16.388;2023-03-01T09:44:09;38.23;;;25.33;;
19329;SDS011;9799;48.214;16.388;2023-03-01T09:47:37;42.80;;;26.40;;
19329;SDS011;9799;48.214;16.388;2023-03-01T09:51:00;40.43;;;26.27;;
19329;SDS011;9799;48.214;16.388;2023-03-01T09:54:28;41.07;;;25.77;;
19329;SDS011;9799;48.214;16.388;2023-03-01T09:57:50;43.00;;;25.67;;
19329;SDS011;9799;48.214;16.388;2023-03-01T10:01:20;38.87;;;25.93;;
19329;SDS011;9799;48.214;16.388;2023-03-01T10:04:52;43.37;;;26.87;;
19329;SDS011;9799;48.214;16.388;2023-03-01T10:08:25;34.87;;;23.97;;
19329;SDS011;9799;48.214;16.388;2023-03-01T10:11:53;37.87;;;25.30;;
19329;SDS011;9799;48.214;16.388;2023-03-01T10:15:16;41.67;;;23.97;;
19329;SDS011;9799;48.214;16.388;2023-03-01T10:18:42;32.27;;;22.40;;
19329;SDS011;9799;48.214;16.388;2023-03-01T10:22:11;32.87;;;23.13;;
19329;SDS011;9799;48.214;16.388;2023-03-01T10:25:41;36.40;;;24.27;;
19329;SDS011;9799;48.214;16.388;2023-03-01T10:29:13;39.97;;;24.37;;
19329;SDS011;9799;48.214;16.388;2023-03-01T10:32:35;37.97;;;22.50;;
19329;SDS011;9799;48.214;16.388;2023-03-01T10:35:56;33.73;;;22.17;;
19329;SDS011;9799;48.214;16.388;2023-03-01T10:39:20;36.57;;;23.47;;
19329;SDS011;9799;48.214;16.388;2023-03-01T10:42:46;34.57;;;23.03;;
19329;SDS011;9799;48.214;16.388;2023-03-01T10:46:19;30.70;;;20.60;;
19329;SDS011;9799;48.214;16.388;2023-03-01T10:49:51;37.13;;;23.13;;
19329;SDS011;9799;48.214;16.388;2023-03-01T10:53:20;33.60;;;24.20;;
19329;SDS011;9799;48.214;16.388;2023-03-01T10:56:47;36.03;;;23.67;;
19329;SDS011;9799;48.214;16.388;2023-03-01T11:00:21;32.67;;;22.20;;
19329;SDS011;9799;48.214;16.388;2023-03-01T11:03:44;34.67;;;23.00;;
19329;SDS011;9799;48.214;16.388;2023-03-01T11:07:05;31.83;;;22.77;;
19329;SDS011;9799;48.214;16.388;2023-03-01T11:10:27;44.07;;;25.93;;
19329;SDS011;9799;48.214;16.388;2023-03-01T11:13:53;36.63;;;24.80;;
19329;SDS011;9799;48.214;16.388;2023-03-01T11:17:17;34.87;;;23.90;;
19329;SDS011;9799;48.214;16.388;2023-03-01T11:20:42;29.37;;;20.70;;
19329;SDS011;9799;48.214;16.388;2023-03-01T11:24:04;51.47;;;30.77;;
19329;SDS011;9799;48.214;16.388;2023-03-01T11:27:31;80.97;;;45.43;;
19329;SDS011;9799;48.214;16.388;2023-03-01T11:30:55;40.40;;;25.70;;
19329;SDS011;9799;48.214;16.388;2023-03-01T11:34:19;33.10;;;21.60;;
19329;SDS011;9799;48.214;16.388;2023-03-01T11:37:54;36.50;;;24.47;;
19329;SDS011;9799;48.214;16.388;2023-03-01T11:41:23;31.73;;;21.97;;
19329;SDS011;9799;48.214;16.388;2023-03-01T11:44:49;31.40;;;22.50;;
19329;SDS011;9799;48.214;16.388;2023-03-01T11:48:22;33.50;;;20.80;;
19329;SDS011;9799;48.214;16.388;2023-03-01T11:51:55;30.03;;;21.83;;
19329;SDS011;9799;48.214;16.388;2023-03-01T11:55:36;31.73;;;21.60;;
19329;SDS011;9799;48.214;16.388;2023-03-01T11:59:17;27.73;;;19.50;;
19329;SDS011;9799;48.214;16.388;2023-03-01T12:03:16;37.50;;;24.00;;
19329;SDS011;9799;48.214;16.388;2023-03-01T12:06:50;32.67;;;20.40;;
19329;SDS011;9799;48.214;16.388;2023-03-01T12:10:21;32.13;;;20.50;;
19329;SDS011;9799;48.214;16.388;2023-03-01T12:13:58;32.63;;;21.00;;
19329;SDS011;9799;48.214;16.388;2023-03-01T12:17:40;31.87;;;20.33;;
19329;SDS011;9799;48.214;16.388;2023-03-01T12:21:19;28.67;;;17.97;;
19329;SDS011;9799;48.214;16.388;2023-03-01T12:24:51;23.27;;;16.20;;
19329;SDS011;9799;48.214;16.388;2023-03-01T12:28:45;24.13;;;17.13;;
19329;SDS011;9799;48.214;16.388;2023-03-01T12:32:25;27.67;;;18.20;;
19329;SDS011;9799;48.214;16.388;2023-03-01T12:36:03;29.37;;;19.07;;
19329;SDS011;9799;48.214;16.388;2023-03-01T12:39:59;25.90;;;18.20;;
19329;SDS011;9799;48.214;16.388;2023-03-01T12:43:44;28.37;;;17.97;;
19329;SDS011;9799;48.214;16.388;2023-03-01T12:47:15;23.57;;;17.27;;
19329;SDS011;9799;48.214;16.388;2023-03-01T12:50:47;23.50;;;17.10;;
19329;SDS011;9799;48.214;16.388;2023-03-01T12:54:14;26.67;;;18.30;;
19329;SDS011;9799;48.214;16.388;2023-03-01T12:57:37;24.03;;;17.30;;
19329;SDS011;9799;48.214;16.388;2023-03-01T13:01:07;26.67;;;18.80;;
19329;SDS011;9799;48.214;16.388;2023-03-01T13:04:40;32.07;;;20.23;;
19329;SDS011;9799;48.214;16.388;2023-03-01T13:08:14;31.93;;;19.53;;
19329;SDS011;9799;48.214;16.388;2023-03-01T13:11:42;27.93;;;19.37;;
19329;SDS011;9799;48.214;16.388;2023-03-01T13:15:03;26.03;;;19.13;;
19329;SDS011;9799;48.214;16.388;2023-03-01T13:18:44;29.07;;;20.20;;
19329;SDS011;9799;48.214;16.388;2023-03-01T13:26:00;30.37;;;19.77;;
19329;SDS011;9799;48.214;16.388;2023-03-01T13:29:28;28.80;;;18.67;;
19329;SDS011;9799;48.214;16.388;2023-03-01T13:37:09;27.87;;;18.63;;
19329;SDS011;9799;48.214;16.388;2023-03-01T13:40:57;26.67;;;18.50;;
19329;SDS011;9799;48.214;16.388;2023-03-01T13:44:21;25.43;;;16.93;;
19329;SDS011;9799;48.214;16.388;2023-03-01T13:47:48;26.00;;;19.10;;
19329;SDS011;9799;48.214;16.388;2023-03-01T13:51:13;24.03;;;17.90;;
19329;SDS011;9799;48.214;16.388;2023-03-01T13:54:35;63.50;;;40.73;;
19329;SDS011;9799;48.214;16.388;2023-03-01T13:57:59;27.07;;;20.00;;
19329;SDS011;9799;48.214;16.388;2023-03-01T14:01:26;33.43;;;24.33;;
19329;SDS011;9799;48.214;16.388;2023-03-01T14:04:57;29.43;;;20.77;;
19329;SDS011;9799;48.214;16.388;2023-03-01T14:08:22;25.63;;;19.10;;
19329;SDS011;9799;48.214;16.388;2023-03-01T14:15:37;27.53;;;19.03;;
19329;SDS011;9799;48.214;16.388;2023-03-01T14:19:07;28.20;;;18.70;;
19329;SDS011;9799;48.214;16.388;2023-03-01T14:22:39;26.70;;;19.47;;
19329;SDS011;9799;48.214;16.388;2023-03-01T14:26:02;34.83;;;18.57;;
19329;SDS011;9799;48.214;16.388;2023-03-01T14:29:24;27.83;;;17.90;;
19329;SDS011;9799;48.214;16.388;2023-03-01T14:32:51;27.83;;;18.27;;
19329;SDS011;9799;48.214;16.388;2023-03-01T14:36:13;26.93;;;20.23;;
19329;SDS011;9799;48.214;16.388;2023-03-01T14:39:36;28.97;;;20.67;;
19329;SDS011;9799;48.214;16.388;2023-03-01T14:42:58;29.33;;;20.43;;
19329;SDS011;9799;48.214;16.388;2023-03-01T14:46:22;30.47;;;22.67;;
19329;SDS011;9799;48.214;16.388;2023-03-01T14:49:46;31.33;;;20.93;;
19329;SDS011;9799;48.214;16.388;2023-03-01T14:53:14;29.77;;;21.37;;
19329;SDS011;9799;48.214;16.388;2023-03-01T14:56:44;35.03;;;21.73;;
19329;SDS011;9799;48.214;16.388;2023-03-01T15:00:07;27.23;;;20.67;;
19329;SDS011;9799;48.214;16.388;2023-03-01T15:03:34;31.77;;;19.67;;
19329;SDS011;9799;48.214;16.388;2023-03-01T15:06:57;31.43;;;21.83;;
19329;SDS011;9799;48.214;16.388;2023-03-01T15:10:25;32.13;;;21.80;;
19329;SDS011;9799;48.214;16.388;2023-03-01T15:13:48;31.80;;;21.30;;
19329;SDS011;9799;48.214;16.388;2023-03-01T15:17:16;29.70;;;21.77;;
19329;SDS011;9799;48.214;16.388;2023-03-01T15:20:51;34.00;;;21.97;;
19329;SDS011;9799;48.214;16.388;2023-03-01T15:24:16;36.10;;;22.93;;
19329;SDS011;9799;48.214;16.388;2023-03-01T15:27:40;32.87;;;21.30;;
19329;SDS011;9799;48.214;16.388;2023-03-01T15:31:13;38.07;;;23.90;;
19329;SDS011;9799;48.214;16.388;2023-03-01T15:34:40;27.13;;;19.60;;
19329;SDS011;9799;48.214;16.388;2023-03-01T15:38:01;28.77;;;20.23;;
19329;SDS011;9799;48.214;16.388;2023-03-01T15:41:24;32.80;;;21.23;;
19329;SDS011;9799;48.214;16.388;2023-03-01T15:44:47;29.17;;;20.27;;
19329;SDS011;9799;48.214;16.388;2023-03-01T15:48:15;32.13;;;20.17;;
19329;SDS011;9799;48.214;16.388;2023-03-01T15:51:39;34.53;;;21.97;;
19329;SDS011;9799;48.214;16.388;2023-03-01T15:55:01;29.13;;;20.37;;
19329;SDS011;9799;48.214;16.388;2023-03-01T15:58:25;30.50;;;19.50;;
19329;SDS011;9799;48.214;16.388;2023-03-01T16:01:46;34.73;;;20.60;;
19329;SDS011;9799;48.214;16.388;2023-03-01T16:05:11;28.53;;;20.03;;
19329;SDS011;9799;48.214;16.388;2023-03-01T16:08:37;30.70;;;20.67;;
19329;SDS011;9799;48.214;16.388;2023-03-01T16:11:59;27.47;;;19.13;;
19329;SDS011;9799;48.214;16.388;2023-03-01T16:15:21;28.03;;;19.83;;
19329;SDS011;9799;48.214;16.388;2023-03-01T16:18:45;28.33;;;19.57;;
19329;SDS011;9799;48.214;16.388;2023-03-01T16:22:08;29.73;;;19.50;;
19329;SDS011;9799;48.214;16.388;2023-03-01T16:25:31;35.17;;;20.37;;
19329;SDS011;9799;48.214;16.388;2023-03-01T16:28:54;29.57;;;19.57;;
19329;SDS011;9799;48.214;16.388;2023-03-01T16:32:17;31.33;;;19.93;;
19329;SDS011;9799;48.214;16.388;2023-03-01T16:35:39;26.20;;;17.80;;
19329;SDS011;9799;48.214;16.388;2023-03-01T16:39:02;28.57;;;19.70;;
19329;SDS011;9799;48.214;16.388;2023-03-01T16:42:24;28.50;;;18.67;;
19329;SDS011;9799;48.214;16.388;2023-03-01T16:45:45;26.00;;;19.43;;
19329;SDS011;9799;48.214;16.388;2023-03-01T16:49:06;30.80;;;20.07;;
19329;SDS011;9799;48.214;16.388;2023-03-01T16:52:29;30.77;;;19.97;;
19329;SDS011;9799;48.214;16.388;2023-03-01T16:55:55;35.03;;;21.97;;
19329;SDS011;9799;48.214;16.388;2023-03-01T16:59:16;35.30;;;20.93;;
19329;SDS011;9799;48.214;16.388;2023-03-01T17:02:39;32.90;;;20.83;;
19329;SDS011;9799;48.214;16.388;2023-03-01T17:06:01;31.47;;;20.03;;
19329;SDS011;9799;48.214;16.388;2023-03-01T17:09:23;31.93;;;21.13;;
19329;SDS011;9799;48.214;16.388;2023-03-01T17:12:48;36.67;;;21.03;;
19329;SDS011;9799;48.214;16.388;2023-03-01T17:16:11;31.33;;;20.90;;
19329;SDS011;9799;48.214;16.388;2023-03-01T17:19:35;27.97;;;20.17;;
19329;SDS011;9799;48.214;16.388;2023-03-01T17:23:00;31.63;;;20.90;;
19329;SDS011;9799;48.214;16.388;2023-03-01T17:26:22;34.30;;;20.60;;
19329;SDS011;9799;48.214;16.388;2023-03-01T17:29:46;39.00;;;22.67;;
19329;SDS011;9799;48.214;16.388;2023-03-01T17:33:07;35.57;;;24.27;;
19329;SDS011;9799;48.214;16.388;2023-03-01T17:36:29;39.80;;;22.57;;
19329;SDS011;9799;48.214;16.388;2023-03-01T17:39:52;33.57;;;22.43;;
19329;SDS011;9799;48.214;16.388;2023-03-01T17:43:14;34.40;;;23.63;;
19329;SDS011;9799;48.214;16.388;2023-03-01T17:46:39;37.90;;;23.17;;
19329;SDS011;9799;48.214;16.388;2023-03-01T17:50:00;31.83;;;21.73;;
19329;SDS011;9799;48.214;16.388;2023-03-01T17:53:23;38.27;;;23.10;;
19329;SDS011;9799;48.214;16.388;2023-03-01T17:56:46;33.37;;;22.27;;
19329;SDS011;9799;48.214;16.388;2023-03-01T18:00:09;38.37;;;23.67;;
19329;SDS011;9799;48.214;16.388;2023-03-01T18:03:35;35.60;;;23.10;;
19329;SDS011;9799;48.214;16.388;2023-03-01T18:06:56;42.13;;;26.83;;
19329;SDS011;9799;48.214;16.388;2023-03-01T18:10:19;40.07;;;24.57;;
19329;SDS011;9799;48.214;16.388;2023-03-01T18:13:40;35.53;;;22.77;;
19329;SDS011;9799;48.214;16.388;2023-03-01T18:17:02;35.93;;;23.23;;
19329;SDS011;9799;48.214;16.388;2023-03-01T18:20:31;33.40;;;23.07;;
19329;SDS011;9799;48.214;16.388;2023-03-01T18:23:53;34.73;;;24.20;;
19329;SDS011;9799;48.214;16.388;2023-03-01T18:27:15;40.83;;;26.40;;
19329;SDS011;9799;48.214;16.388;2023-03-01T18:30:37;41.40;;;25.87;;
19329;SDS011;9799;48.214;16.388;2023-03-01T18:33:59;42.33;;;26.00;;
19329;SDS011;9799;48.214;16.388;2023-03-01T18:37:23;45.10;;;27.90;;
19329;SDS011;9799;48.214;16.388;2023-03-01T18:40:45;53.70;;;28.60;;
19329;SDS011;9799;48.214;16.388;2023-03-01T18:44:08;44.23;;;27.77;;
19329;SDS011;9799;48.214;16.388;2023-03-01T18:47:30;41.70;;;26.27;;
19329;SDS011;9799;48.214;16.388;2023-03-01T18:50:52;78.63;;;44.17;;
19329;SDS011;9799;48.214;16.388;2023-03-01T18:54:17;48.17;;;29.53;;
19329;SDS011;9799;48.214;16.388;2023-03-01T18:57:39;46.83;;;29.73;;
19329;SDS011;9799;48.214;16.388;2023-03-01T19:01:01;42.20;;;27.20;;
19329;SDS011;9799;48.214;16.388;2023-03-01T19:04:26;42.53;;;28.07;;
19329;SDS011;9799;48.214;16.388;2023-03-01T19:07:49;46.77;;;29.63;;
19329;SDS011;9799;48.214;16.388;2023-03-01T19:11:13;44.60;;;28.67;;
19329;SDS011;9799;48.214;16.388;2023-03-01T19:14:36;48.57;;;31.83;;
19329;SDS011;9799;48.214;16.388;2023-03-01T19:17:58;47.90;;;29.97;;
19329;SDS011;9799;48.214;16.388;2023-03-01T19:21:22;51.37;;;30.30;;
19329;SDS011;9799;48.214;16.388;2023-03-01T19:24:45;50.10;;;30.73;;
19329;SDS011;9799;48.214;16.388;2023-03-01T19:28:09;44.70;;;28.03;;
19329;SDS011;9799;48.214;16.388;2023-03-01T19:31:31;45.87;;;29.87;;
19329;SDS011;9799;48.214;16.388;2023-03-01T19:34:54;49.23;;;29.90;;
19329;SDS011;9799;48.214;16.388;2023-03-01T19:38:16;49.77;;;28.80;;
19329;SDS011;9799;48.214;16.388;2023-03-01T19:41:39;48.87;;;31.70;;
19329;SDS011;9799;48.214;16.388;2023-03-01T19:45:03;48.00;;;29.90;;
19329;SDS011;9799;48.214;16.388;2023-03-01T19:48:26;50.17;;;32.40;;
19329;SDS011;9799;48.214;16.388;2023-03-01T19:51:49;46.20;;;31.93;;
19329;SDS011;9799;48.214;16.388;2023-03-01T19:55:11;45.97;;;29.53;;
19329;SDS011;9799;48.214;16.388;2023-03-01T19:58:36;46.43;;;30.60;;
19329;SDS011;9799;48.214;16.388;2023-03-01T20:02:13;40.80;;;27.03;;
19329;SDS011;9799;48.214;16.388;2023-03-01T20:05:36;39.17;;;27.17;;